sensor_id;sensor_type;location;lat;lon;timestamp;pressure;altitude;pressure_sealevel;temperature;humidity
5883;BME280;2967;51.488;6.618;2022-09-09T00:00:21;100533.38;;;17.24;100.00
5883;BME280;2967;51.488;6.618;2022-09-09T00:05:29;100501.19;;;17.16;100.00
5883;BME280;2967;51.488;6.618;2022-09-09T00:10:37;100532.06;;;17.28;100.00
5883;BME280;2967;51.488;6.618;2022-09-09T00:15:49;100536.84;;;17.44;100.00
5883;BME280;2967;51.488;6.618;2022-09-09T00:21:03;100535.00;;;17.44;100.00
5883;BME280;2967;51.488;6.618;2022-09-09T00:26:11;100532.63;;;17.32;100.00
5883;BME280;2967;51.488;6.618;2022-09-09T00:31:20;100548.00;;;17.39;100.00
5883;BME280;2967;51.488;6.618;2022-09-09T00:36:26;100537.13;;;17.41;100.00
5883;BME280;2967;51.488;6.618;2022-09-09T00:41:40;100537.16;;;17.31;100.00
5883;BME280;2967;51.488;6.618;2022-09-09T00:47:01;100538.53;;;17.45;100.00
5883;BME280;2967;51.488;6.618;2022-09-09T00:52:21;100532.47;;;17.43;100.00
5883;BME280;2967;51.488;6.618;2022-09-09T00:57:26;100535.59;;;17.38;100.00
5883;BME280;2967;51.488;6.618;2022-09-09T01:02:35;100534.44;;;17.41;100.00
5883;BME280;2967;51.488;6.618;2022-09-09T01:07:47;100539.22;;;17.47;100.00
5883;BME280;2967;51.488;6.618;2022-09-09T01:12:55;100525.44;;;17.42;100.00
5883;BME280;2967;51.488;6.618;2022-09-09T01:18:02;100526.28;;;17.42;100.00
5883;BME280;2967;51.488;6.618;2022-09-09T01:23:30;100514.19;;;17.38;100.00
5883;BME280;2967;51.488;6.618;2022-09-09T01:28:51;100511.41;;;17.30;100.00
5883;BME280;2967;51.488;6.618;2022-09-09T01:34:00;100515.47;;;17.34;100.00
5883;BME280;2967;51.488;6.618;2022-09-09T01:39:05;100517.41;;;17.42;100.00
5883;BME280;2967;51.488;6.618;2022-09-09T01:44:09;100514.78;;;17.32;100.00
5883;BME280;2967;51.488;6.618;2022-09-09T01:49:14;100519.25;;;17.41;100.00
5883;BME280;2967;51.488;6.618;2022-09-09T02:00:15;100482.22;;;17.10;100.00
5883;BME280;2967;51.488;6.618;2022-09-09T02:05:26;100515.59;;;17.33;100.00
5883;BME280;2967;51.488;6.618;2022-09-09T02:10:33;100516.44;;;17.33;100.00
5883;BME280;2967;51.488;6.618;2022-09-09T02:15:52;100514.50;;;17.35;100.00
5883;BME280;2967;51.488;6.618;2022-09-09T02:20:58;100517.16;;;17.35;100.00
5883;BME280;2967;51.488;6.618;2022-09-09T02:26:01;100510.00;;;17.36;100.00
5883;BME280;2967;51.488;6.618;2022-09-09T02:31:07;100500.41;;;17.33;100.00
5883;BME280;2967;51.488;6.618;2022-09-09T02:36:15;100506.75;;;17.32;100.00
5883;BME280;2967;51.488;6.618;2022-09-09T02:41:20;100505.81;;;17.24;100.00
5883;BME280;2967;51.488;6.618;2022-09-09T02:46:36;100505.66;;;17.25;100.00
5883;BME280;2967;51.488;6.618;2022-09-09T02:51:51;100509.72;;;17.29;100.00
5883;BME280;2967;51.488;6.618;2022-09-09T02:57:02;100501.41;;;17.32;100.00
5883;BME280;2967;51.488;6.618;2022-09-09T03:02:12;100509.63;;;17.21;100.00
5883;BME280;2967;51.488;6.618;2022-09-09T03:07:17;100504.66;;;17.26;100.00
5883;BME280;2967;51.488;6.618;2022-09-09T03:12:21;100506.41;;;17.18;100.00
5883;BME280;2967;51.488;6.618;2022-09-09T03:17:25;100492.91;;;17.19;100.00
5883;BME280;2967;51.488;6.618;2022-09-09T03:22:30;100503.22;;;17.32;100.00
5883;BME280;2967;51.488;6.618;2022-09-09T03:27:34;100494.66;;;17.28;100.00
5883;BME280;2967;51.488;6.618;2022-09-09T03:32:39;100499.72;;;17.31;100.00
5883;BME280;2967;51.488;6.618;2022-09-09T03:37:48;100493.38;;;17.32;100.00
5883;BME280;2967;51.488;6.618;2022-09-09T03:42:51;100484.56;;;17.22;100.00
5883;BME280;2967;51.488;6.618;2022-09-09T03:47:55;100493.84;;;17.18;100.00
5883;BME280;2967;51.488;6.618;2022-09-09T03:52:59;100493.38;;;17.32;100.00
5883;BME280;2967;51.488;6.618;2022-09-09T03:58:01;100491.84;;;17.30;100.00
5883;BME280;2967;51.488;6.618;2022-09-09T04:03:05;100491.41;;;17.34;100.00
5883;BME280;2967;51.488;6.618;2022-09-09T04:08:08;100445.16;;;16.97;100.00
5883;BME280;2967;51.488;6.618;2022-09-09T04:13:11;100492.13;;;17.36;100.00
5883;BME280;2967;51.488;6.618;2022-09-09T04:18:16;100497.25;;;17.47;100.00
5883;BME280;2967;51.488;6.618;2022-09-09T04:23:21;100501.81;;;17.37;100.00
5883;BME280;2967;51.488;6.618;2022-09-09T04:28:27;100494.50;;;17.39;100.00
5883;BME280;2967;51.488;6.618;2022-09-09T04:33:33;100489.22;;;17.47;100.00
5883;BME280;2967;51.488;6.618;2022-09-09T04:38:41;100492.75;;;17.48;100.00
5883;BME280;2967;51.488;6.618;2022-09-09T04:43:46;100491.31;;;17.53;100.00
5883;BME280;2967;51.488;6.618;2022-09-09T04:48:51;100488.50;;;17.55;100.00
5883;BME280;2967;51.488;6.618;2022-09-09T04:53:57;100491.31;;;17.53;100.00
5883;BME280;2967;51.488;6.618;2022-09-09T04:59:00;100496.34;;;17.56;100.00
5883;BME280;2967;51.488;6.618;2022-09-09T05:04:25;100490.88;;;17.58;100.00
5883;BME280;2967;51.488;6.618;2022-09-09T05:09:28;100492.41;;;17.60;100.00
5883;BME280;2967;51.488;6.618;2022-09-09T05:14:31;100491.41;;;17.61;100.00
5883;BME280;2967;51.488;6.618;2022-09-09T05:19:36;100495.44;;;17.65;100.00
5883;BME280;2967;51.488;6.618;2022-09-09T05:24:39;100482.06;;;17.65;100.00
5883;BME280;2967;51.488;6.618;2022-09-09T05:29:42;100482.28;;;17.54;100.00
5883;BME280;2967;51.488;6.618;2022-09-09T05:34:48;100477.34;;;17.59;100.00
5883;BME280;2967;51.488;6.618;2022-09-09T05:39:51;100483.97;;;17.55;100.00
5883;BME280;2967;51.488;6.618;2022-09-09T05:44:55;100484.97;;;17.54;100.00
5883;BME280;2967;51.488;6.618;2022-09-09T05:50:01;100483.59;;;17.50;100.00
5883;BME280;2967;51.488;6.618;2022-09-09T05:55:05;100482.97;;;17.56;100.00
5883;BME280;2967;51.488;6.618;2022-09-09T06:00:09;100485.38;;;17.59;100.00
5883;BME280;2967;51.488;6.618;2022-09-09T06:05:20;100493.09;;;17.62;100.00
5883;BME280;2967;51.488;6.618;2022-09-09T06:10:24;100501.50;;;17.67;100.00
5883;BME280;2967;51.488;6.618;2022-09-09T06:15:27;100495.53;;;17.73;100.00
5883;BME280;2967;51.488;6.618;2022-09-09T06:20:33;100507.03;;;17.83;100.00
5883;BME280;2967;51.488;6.618;2022-09-09T06:25:36;100503.88;;;17.88;100.00
5883;BME280;2967;51.488;6.618;2022-09-09T06:30:41;100505.78;;;17.95;100.00
5883;BME280;2967;51.488;6.618;2022-09-09T06:35:52;100502.28;;;17.95;100.00
5883;BME280;2967;51.488;6.618;2022-09-09T06:40:57;100502.34;;;18.03;100.00
5883;BME280;2967;51.488;6.618;2022-09-09T06:46:03;100507.41;;;18.06;100.00
5883;BME280;2967;51.488;6.618;2022-09-09T06:51:11;100501.59;;;18.10;100.00
5883;BME280;2967;51.488;6.618;2022-09-09T06:56:20;100505.41;;;18.25;100.00
5883;BME280;2967;51.488;6.618;2022-09-09T07:01:27;100517.44;;;18.39;100.00
5883;BME280;2967;51.488;6.618;2022-09-09T07:06:35;100512.16;;;18.47;100.00
5883;BME280;2967;51.488;6.618;2022-09-09T07:11:40;100510.00;;;18.50;100.00
5883;BME280;2967;51.488;6.618;2022-09-09T07:16:45;100516.78;;;18.62;100.00
5883;BME280;2967;51.488;6.618;2022-09-09T07:21:51;100523.34;;;18.68;100.00
5883;BME280;2967;51.488;6.618;2022-09-09T07:26:56;100529.25;;;18.71;100.00
5883;BME280;2967;51.488;6.618;2022-09-09T07:32:01;100519.72;;;18.77;100.00
5883;BME280;2967;51.488;6.618;2022-09-09T07:37:10;100533.00;;;18.86;100.00
5883;BME280;2967;51.488;6.618;2022-09-09T07:42:17;100527.56;;;18.70;100.00
5883;BME280;2967;51.488;6.618;2022-09-09T07:47:21;100537.28;;;18.71;100.00
5883;BME280;2967;51.488;6.618;2022-09-09T07:52:28;100528.28;;;18.80;100.00
5883;BME280;2967;51.488;6.618;2022-09-09T07:57:35;100535.81;;;18.77;100.00
5883;BME280;2967;51.488;6.618;2022-09-09T08:02:40;100545.47;;;18.95;100.00
5883;BME280;2967;51.488;6.618;2022-09-09T08:07:46;100541.97;;;18.94;100.00
5883;BME280;2967;51.488;6.618;2022-09-09T08:12:54;100544.91;;;19.09;100.00
5883;BME280;2967;51.488;6.618;2022-09-09T08:18:17;100545.84;;;19.25;100.00
5883;BME280;2967;51.488;6.618;2022-09-09T08:23:22;100540.25;;;19.44;100.00
5883;BME280;2967;51.488;6.618;2022-09-09T08:28:25;100539.47;;;19.60;100.00
5883;BME280;2967;51.488;6.618;2022-09-09T08:33:28;100541.69;;;19.80;100.00
5883;BME280;2967;51.488;6.618;2022-09-09T08:38:37;100549.66;;;20.06;100.00
5883;BME280;2967;51.488;6.618;2022-09-09T08:43:46;100560.28;;;20.15;100.00
5883;BME280;2967;51.488;6.618;2022-09-09T08:48:55;100564.63;;;20.16;100.00
5883;BME280;2967;51.488;6.618;2022-09-09T08:54:03;100559.59;;;20.29;100.00
5883;BME280;2967;51.488;6.618;2022-09-09T08:59:09;100556.91;;;20.29;100.00
5883;BME280;2967;51.488;6.618;2022-09-09T09:04:30;100565.16;;;20.36;100.00
5883;BME280;2967;51.488;6.618;2022-09-09T09:09:42;100560.59;;;20.12;100.00
5883;BME280;2967;51.488;6.618;2022-09-09T09:14:49;100565.41;;;20.01;100.00
5883;BME280;2967;51.488;6.618;2022-09-09T09:19:53;100564.38;;;19.94;100.00
5883;BME280;2967;51.488;6.618;2022-09-09T09:25:03;100567.53;;;19.81;100.00
5883;BME280;2967;51.488;6.618;2022-09-09T09:30:18;100582.63;;;19.82;100.00
5883;BME280;2967;51.488;6.618;2022-09-09T09:35:35;100574.75;;;19.89;100.00
5883;BME280;2967;51.488;6.618;2022-09-09T09:40:51;100575.63;;;19.97;100.00
5883;BME280;2967;51.488;6.618;2022-09-09T09:45:57;100577.47;;;19.97;100.00
5883;BME280;2967;51.488;6.618;2022-09-09T09:51:20;100570.00;;;20.08;99.24
5883;BME280;2967;51.488;6.618;2022-09-09T09:56:28;100573.03;;;20.21;99.26
5883;BME280;2967;51.488;6.618;2022-09-09T10:01:33;100574.38;;;20.33;97.95
5883;BME280;2967;51.488;6.618;2022-09-09T10:06:43;100574.91;;;20.45;97.36
5883;BME280;2967;51.488;6.618;2022-09-09T10:11:54;100557.13;;;20.60;95.44
5883;BME280;2967;51.488;6.618;2022-09-09T10:17:08;100564.31;;;20.67;96.78
5883;BME280;2967;51.488;6.618;2022-09-09T10:22:25;100561.28;;;20.70;95.20
5883;BME280;2967;51.488;6.618;2022-09-09T10:27:35;100562.97;;;20.63;93.94
5883;BME280;2967;51.488;6.618;2022-09-09T10:32:46;100562.63;;;20.50;93.33
5883;BME280;2967;51.488;6.618;2022-09-09T10:38:16;100564.13;;;20.29;94.69
5883;BME280;2967;51.488;6.618;2022-09-09T10:43:37;100549.34;;;20.25;95.41
5883;BME280;2967;51.488;6.618;2022-09-09T10:48:51;100551.53;;;20.21;94.98
5883;BME280;2967;51.488;6.618;2022-09-09T10:54:13;100552.06;;;20.33;96.27
5883;BME280;2967;51.488;6.618;2022-09-09T10:59:25;100545.19;;;20.46;95.96
5883;BME280;2967;51.488;6.618;2022-09-09T11:04:32;100517.44;;;20.38;95.68
5883;BME280;2967;51.488;6.618;2022-09-09T11:09:40;100541.31;;;20.65;94.31
5883;BME280;2967;51.488;6.618;2022-09-09T11:14:48;100550.88;;;20.59;94.22
5883;BME280;2967;51.488;6.618;2022-09-09T11:19:53;100549.22;;;20.58;94.81
5883;BME280;2967;51.488;6.618;2022-09-09T11:24:58;100550.69;;;20.69;95.48
5883;BME280;2967;51.488;6.618;2022-09-09T11:30:16;100535.94;;;20.65;94.80
5883;BME280;2967;51.488;6.618;2022-09-09T11:41:08;100513.91;;;20.53;93.11
5883;BME280;2967;51.488;6.618;2022-09-09T11:46:14;100542.13;;;20.73;94.02
5883;BME280;2967;51.488;6.618;2022-09-09T11:51:26;100541.09;;;20.82;94.86
5883;BME280;2967;51.488;6.618;2022-09-09T11:56:30;100526.97;;;21.04;93.64
5883;BME280;2967;51.488;6.618;2022-09-09T12:01:37;100533.88;;;20.99;93.44
5883;BME280;2967;51.488;6.618;2022-09-09T12:06:45;100540.41;;;21.12;93.68
5883;BME280;2967;51.488;6.618;2022-09-09T12:11:48;100535.53;;;21.08;92.78
5883;BME280;2967;51.488;6.618;2022-09-09T12:16:51;100537.22;;;21.09;93.26
5883;BME280;2967;51.488;6.618;2022-09-09T12:22:00;100517.44;;;20.94;93.92
5883;BME280;2967;51.488;6.618;2022-09-09T12:27:11;100552.03;;;20.97;94.12
5883;BME280;2967;51.488;6.618;2022-09-09T12:32:23;100572.72;;;20.56;100.00
5883;BME280;2967;51.488;6.618;2022-09-09T12:37:32;100548.34;;;20.26;100.00
5883;BME280;2967;51.488;6.618;2022-09-09T12:42:39;100564.13;;;20.29;100.00
5883;BME280;2967;51.488;6.618;2022-09-09T12:47:45;100563.81;;;20.32;100.00
5883;BME280;2967;51.488;6.618;2022-09-09T12:52:50;100558.75;;;20.29;100.00
5883;BME280;2967;51.488;6.618;2022-09-09T12:57:54;100563.31;;;20.36;100.00
5883;BME280;2967;51.488;6.618;2022-09-09T13:02:59;100557.78;;;20.70;100.00
5883;BME280;2967;51.488;6.618;2022-09-09T13:08:04;100541.28;;;20.97;100.00
5883;BME280;2967;51.488;6.618;2022-09-09T13:13:13;100543.28;;;21.11;100.00
5883;BME280;2967;51.488;6.618;2022-09-09T13:18:21;100540.25;;;20.98;100.00
5883;BME280;2967;51.488;6.618;2022-09-09T13:23:27;100526.50;;;20.93;100.00
5883;BME280;2967;51.488;6.618;2022-09-09T13:28:31;100522.81;;;20.94;100.00
5883;BME280;2967;51.488;6.618;2022-09-09T13:33:37;100505.50;;;20.96;100.00
5883;BME280;2967;51.488;6.618;2022-09-09T13:38:53;100506.06;;;21.22;100.00
5883;BME280;2967;51.488;6.618;2022-09-09T13:43:56;100506.22;;;21.29;100.00
5883;BME280;2967;51.488;6.618;2022-09-09T13:49:03;100506.59;;;21.56;100.00
5883;BME280;2967;51.488;6.618;2022-09-09T13:54:20;100510.09;;;21.73;97.86
5883;BME280;2967;51.488;6.618;2022-09-09T13:59:24;100502.50;;;21.76;97.60
5883;BME280;2967;51.488;6.618;2022-09-09T14:04:48;100498.72;;;21.47;96.18
5883;BME280;2967;51.488;6.618;2022-09-09T14:09:52;100508.53;;;21.40;96.90
5883;BME280;2967;51.488;6.618;2022-09-09T14:14:54;100508.97;;;21.21;96.80
5883;BME280;2967;51.488;6.618;2022-09-09T14:19:58;100518.59;;;20.99;94.36
5883;BME280;2967;51.488;6.618;2022-09-09T14:25:01;100537.28;;;20.53;99.15
5883;BME280;2967;51.488;6.618;2022-09-09T14:30:05;100548.59;;;19.83;100.00
5883;BME280;2967;51.488;6.618;2022-09-09T14:35:09;100544.47;;;19.21;100.00
5883;BME280;2967;51.488;6.618;2022-09-09T14:40:13;100515.78;;;18.63;100.00
5883;BME280;2967;51.488;6.618;2022-09-09T14:45:18;100535.41;;;18.72;100.00
5883;BME280;2967;51.488;6.618;2022-09-09T14:50:24;100541.97;;;18.69;100.00
5883;BME280;2967;51.488;6.618;2022-09-09T14:55:26;100537.22;;;18.63;100.00
5883;BME280;2967;51.488;6.618;2022-09-09T15:00:30;100532.00;;;18.62;100.00
5883;BME280;2967;51.488;6.618;2022-09-09T15:05:36;100526.44;;;18.55;100.00
5883;BME280;2967;51.488;6.618;2022-09-09T15:10:38;100498.00;;;18.37;100.00
5883;BME280;2967;51.488;6.618;2022-09-09T15:15:41;100512.72;;;18.58;100.00
5883;BME280;2967;51.488;6.618;2022-09-09T15:20:45;100508.22;;;18.59;100.00
5883;BME280;2967;51.488;6.618;2022-09-09T15:25:52;100501.84;;;18.60;100.00
5883;BME280;2967;51.488;6.618;2022-09-09T15:30:55;100491.88;;;18.70;100.00
5883;BME280;2967;51.488;6.618;2022-09-09T15:36:01;100498.34;;;18.84;100.00
5883;BME280;2967;51.488;6.618;2022-09-09T15:41:04;100495.00;;;18.90;100.00
5883;BME280;2967;51.488;6.618;2022-09-09T15:46:26;100492.38;;;18.98;100.00
5883;BME280;2967;51.488;6.618;2022-09-09T15:51:31;100493.25;;;19.07;100.00
5883;BME280;2967;51.488;6.618;2022-09-09T15:56:51;100491.41;;;19.07;100.00
5883;BME280;2967;51.488;6.618;2022-09-09T16:01:57;100486.88;;;19.08;100.00
5883;BME280;2967;51.488;6.618;2022-09-09T16:07:04;100496.81;;;19.15;100.00
5883;BME280;2967;51.488;6.618;2022-09-09T16:12:08;100501.03;;;19.18;100.00
5883;BME280;2967;51.488;6.618;2022-09-09T16:17:14;100511.78;;;19.18;100.00
5883;BME280;2967;51.488;6.618;2022-09-09T16:22:18;100522.34;;;19.19;100.00
5883;BME280;2967;51.488;6.618;2022-09-09T16:27:21;100518.56;;;19.12;100.00
5883;BME280;2967;51.488;6.618;2022-09-09T16:32:24;100513.91;;;19.14;100.00
5883;BME280;2967;51.488;6.618;2022-09-09T16:37:28;100494.91;;;19.00;100.00
5883;BME280;2967;51.488;6.618;2022-09-09T16:42:31;100502.00;;;19.09;100.00
5883;BME280;2967;51.488;6.618;2022-09-09T16:47:40;100510.81;;;19.01;100.00
5883;BME280;2967;51.488;6.618;2022-09-09T16:52:44;100512.34;;;19.04;100.00
5883;BME280;2967;51.488;6.618;2022-09-09T16:57:46;100514.16;;;19.03;100.00
5883;BME280;2967;51.488;6.618;2022-09-09T17:02:50;100513.81;;;18.98;100.00
5883;BME280;2967;51.488;6.618;2022-09-09T17:07:55;100514.97;;;18.96;100.00
5883;BME280;2967;51.488;6.618;2022-09-09T17:12:58;100525.03;;;18.94;100.00
5883;BME280;2967;51.488;6.618;2022-09-09T17:18:03;100525.69;;;18.96;100.00
5883;BME280;2967;51.488;6.618;2022-09-09T17:23:07;100515.16;;;18.94;100.00
5883;BME280;2967;51.488;6.618;2022-09-09T17:28:10;100523.00;;;18.96;100.00
5883;BME280;2967;51.488;6.618;2022-09-09T17:33:14;100527.72;;;18.94;100.00
5883;BME280;2967;51.488;6.618;2022-09-09T17:38:18;100531.00;;;18.88;100.00
5883;BME280;2967;51.488;6.618;2022-09-09T17:43:20;100540.56;;;18.90;100.00
5883;BME280;2967;51.488;6.618;2022-09-09T17:48:23;100536.91;;;18.91;100.00
5883;BME280;2967;51.488;6.618;2022-09-09T17:53:27;100535.53;;;18.87;100.00
5883;BME280;2967;51.488;6.618;2022-09-09T17:58:30;100555.78;;;18.82;100.00
5883;BME280;2967;51.488;6.618;2022-09-09T18:03:34;100553.78;;;18.84;100.00
5883;BME280;2967;51.488;6.618;2022-09-09T18:08:38;100542.69;;;18.79;100.00
5883;BME280;2967;51.488;6.618;2022-09-09T18:13:48;100545.72;;;18.84;100.00
5883;BME280;2967;51.488;6.618;2022-09-09T18:18:53;100543.00;;;18.76;100.00
5883;BME280;2967;51.488;6.618;2022-09-09T18:23:59;100558.94;;;18.77;100.00
5883;BME280;2967;51.488;6.618;2022-09-09T18:29:04;100518.72;;;18.52;100.00
5883;BME280;2967;51.488;6.618;2022-09-09T18:34:09;100575.31;;;18.75;100.00
5883;BME280;2967;51.488;6.618;2022-09-09T18:39:15;100586.72;;;18.77;100.00
5883;BME280;2967;51.488;6.618;2022-09-09T18:44:21;100598.81;;;18.80;100.00
5883;BME280;2967;51.488;6.618;2022-09-09T18:49:24;100613.06;;;18.81;100.00
5883;BME280;2967;51.488;6.618;2022-09-09T18:54:29;100617.97;;;18.68;100.00
5883;BME280;2967;51.488;6.618;2022-09-09T18:59:34;100623.28;;;18.60;100.00
5883;BME280;2967;51.488;6.618;2022-09-09T19:04:36;100623.34;;;18.51;100.00
5883;BME280;2967;51.488;6.618;2022-09-09T19:09:42;100617.53;;;18.38;100.00
5883;BME280;2967;51.488;6.618;2022-09-09T19:14:45;100631.16;;;18.44;100.00
5883;BME280;2967;51.488;6.618;2022-09-09T19:19:48;100645.91;;;18.48;100.00
5883;BME280;2967;51.488;6.618;2022-09-09T19:24:53;100629.06;;;18.38;100.00
5883;BME280;2967;51.488;6.618;2022-09-09T19:29:57;100642.81;;;18.26;100.00
5883;BME280;2967;51.488;6.618;2022-09-09T19:34:59;100644.72;;;18.16;100.00
5883;BME280;2967;51.488;6.618;2022-09-09T19:40:04;100649.28;;;18.06;100.00
5883;BME280;2967;51.488;6.618;2022-09-09T19:45:08;100661.28;;;18.02;100.00
5883;BME280;2967;51.488;6.618;2022-09-09T19:50:11;100659.22;;;17.96;100.00
5883;BME280;2967;51.488;6.618;2022-09-09T19:55:15;100657.75;;;18.01;100.00
5883;BME280;2967;51.488;6.618;2022-09-09T20:00:18;100664.56;;;17.96;100.00
5883;BME280;2967;51.488;6.618;2022-09-09T20:05:21;100662.34;;;17.91;100.00
5883;BME280;2967;51.488;6.618;2022-09-09T20:10:25;100663.47;;;17.89;100.00
5883;BME280;2967;51.488;6.618;2022-09-09T20:15:28;100674.50;;;17.76;100.00
5883;BME280;2967;51.488;6.618;2022-09-09T20:20:31;100673.22;;;17.80;100.00
5883;BME280;2967;51.488;6.618;2022-09-09T20:25:35;100677.88;;;17.78;100.00
5883;BME280;2967;51.488;6.618;2022-09-09T20:30:38;100687.16;;;17.84;100.00
5883;BME280;2967;51.488;6.618;2022-09-09T20:35:41;100689.97;;;17.82;100.00
5883;BME280;2967;51.488;6.618;2022-09-09T20:40:45;100676.47;;;17.74;100.00
5883;BME280;2967;51.488;6.618;2022-09-09T20:45:48;100682.69;;;17.75;100.00
5883;BME280;2967;51.488;6.618;2022-09-09T20:50:54;100686.06;;;17.77;100.00
5883;BME280;2967;51.488;6.618;2022-09-09T20:55:59;100687.63;;;17.70;100.00
5883;BME280;2967;51.488;6.618;2022-09-09T21:01:04;100673.50;;;17.50;100.00
5883;BME280;2967;51.488;6.618;2022-09-09T21:06:08;100684.00;;;17.61;100.00
5883;BME280;2967;51.488;6.618;2022-09-09T21:11:12;100685.44;;;17.56;100.00
5883;BME280;2967;51.488;6.618;2022-09-09T21:16:17;100652.97;;;17.41;100.00
5883;BME280;2967;51.488;6.618;2022-09-09T21:21:21;100689.63;;;17.58;100.00
5883;BME280;2967;51.488;6.618;2022-09-09T21:26:26;100693.28;;;17.57;100.00
5883;BME280;2967;51.488;6.618;2022-09-09T21:31:28;100699.63;;;17.56;100.00
5883;BME280;2967;51.488;6.618;2022-09-09T21:36:31;100701.06;;;17.60;100.00
5883;BME280;2967;51.488;6.618;2022-09-09T21:41:35;100692.31;;;17.58;100.00
5883;BME280;2967;51.488;6.618;2022-09-09T21:46:38;100696.53;;;17.61;100.00
5883;BME280;2967;51.488;6.618;2022-09-09T21:51:42;100696.25;;;17.64;100.00
5883;BME280;2967;51.488;6.618;2022-09-09T21:56:47;100688.66;;;17.59;100.00
5883;BME280;2967;51.488;6.618;2022-09-09T22:01:52;100693.97;;;17.69;100.00
5883;BME280;2967;51.488;6.618;2022-09-09T22:06:55;100693.03;;;17.60;100.00
5883;BME280;2967;51.488;6.618;2022-09-09T22:11:59;100686.00;;;17.59;100.00
5883;BME280;2967;51.488;6.618;2022-09-09T22:17:03;100687.25;;;17.55;100.00
5883;BME280;2967;51.488;6.618;2022-09-09T22:22:06;100685.88;;;17.51;100.00
5883;BME280;2967;51.488;6.618;2022-09-09T22:27:11;100686.75;;;17.42;100.00
5883;BME280;2967;51.488;6.618;2022-09-09T22:32:16;100682.78;;;17.46;100.00
5883;BME280;2967;51.488;6.618;2022-09-09T22:37:18;100683.34;;;17.50;100.00
5883;BME280;2967;51.488;6.618;2022-09-09T22:42:24;100665.91;;;17.36;100.00
5883;BME280;2967;51.488;6.618;2022-09-09T22:47:27;100669.28;;;17.38;100.00
5883;BME280;2967;51.488;6.618;2022-09-09T22:52:30;100671.25;;;17.36;100.00
5883;BME280;2967;51.488;6.618;2022-09-09T22:57:34;100684.50;;;17.38;100.00
5883;BME280;2967;51.488;6.618;2022-09-09T23:02:38;100684.19;;;17.41;100.00
5883;BME280;2967;51.488;6.618;2022-09-09T23:07:41;100689.25;;;17.34;100.00
5883;BME280;2967;51.488;6.618;2022-09-09T23:12:45;100698.28;;;17.33;100.00
5883;BME280;2967;51.488;6.618;2022-09-09T23:17:49;100692.50;;;17.28;100.00
5883;BME280;2967;51.488;6.618;2022-09-09T23:22:52;100695.59;;;17.33;100.00
5883;BME280;2967;51.488;6.618;2022-09-09T23:27:58;100700.50;;;17.28;100.00
5883;BME280;2967;51.488;6.618;2022-09-09T23:33:01;100700.38;;;17.30;100.00
5883;BME280;2967;51.488;6.618;2022-09-09T23:38:03;100719.53;;;17.25;100.00
5883;BME280;2967;51.488;6.618;2022-09-09T23:43:07;100720.94;;;17.29;100.00
5883;BME280;2967;51.488;6.618;2022-09-09T23:48:10;100723.19;;;17.24;100.00
5883;BME280;2967;51.488;6.618;2022-09-09T23:53:13;100716.03;;;17.15;100.00
5883;BME280;2967;51.488;6.618;2022-09-09T23:58:17;100720.69;;;17.13;100.00
